world map with YPS marked

YPS - Airport

This information may not be accurate or current and is not valid for navigation or flight planning. No warranty of fitness for any purpose is made or implied.

flag of Nova Scotiaflag of Canada

Donate via PayPal

Additional information is available on the NEW Great Circle Mapper

Location
City:  Port Hawkesbury, Nova Scotia, Canada
Name:Port Hawkesbury Airport
ICAO / IATA:CYPD / YPS

Details
Type:Airport (Airfield)
Use:Public/Civil
Latitude:45°39'23"N (45.656389)
Longitude:61°22'06"W (-61.368332)
Elevation:373 ft (114 m)
Runways:1
Longest:5000 ft (1524 m)

Time
Timezone:UTC+30:08 (DST+33:08)
Local Time:

Weather
METAR:CYPD  041409Z AUTO 16007KT 5SM -SN OVC011 M04/M05 A3010 RMK SLP202

Related Locations
Nearby:
Farthest:ALH: 11689 mi / 18812 km
Albany, WA, AU

Find:

   beyond  
but within

Other Information
Maps:
Sources:

  

Airport Diagram

Airport diagram for YPS

Airport diagram PDF from NAV Canada

 


Great Circle Mapper   Great Circle Mapper
Great Circle Mapper FAQ   Great Circle Mapper FAQ
  Karl's Home Page
KLSē   KLSē Home
   GC on Facebook
Airlines of the World   Airlines of the World
Donate via PayPal


Copyright © 2004-2024, Karl L. Swartz. All rights reserved.
All trademarks mentioned herein belong to their respective owners.

Please see credits for attribution and copyright information.

Karl Swartz <karl@kls2.com>
  Powered by FreeBSD
Valid HTML 4.01!
Labeled with ICRA
hCard Microformat
Geo Microformat